Time;durP1;ratioP1;P1;durP2;ratioP2;P2;SDS_P1;SDS_P2;PMS_P1;PMS_P2;Temp;Humidity;BMP_temperature;BMP_pressure;BME280_temperature;BME280_humidity;BME280_pressure;Samples;Min_cycle;Max_cycle;Signal;HPM_P1;HPM_P2
2022/03/07 00:00:19;;;;;;;;;;;20.50;37.00;;;;;;5073047;28;19916;-54
2022/03/07 00:02:45;;;;;;;;;;;20.40;36.90;;;;;;5054941;28;20322;-55
2022/03/07 00:05:10;;;;;;;;;;;20.40;36.90;;;;;;5059952;28;19920;-54
2022/03/07 00:07:36;;;;;;;;;;;20.40;36.90;;;;;;5071357;28;19917;-54
2022/03/07 00:10:01;;;;;;;;;;;20.40;37.00;;;;;;5067226;28;19931;-54
2022/03/07 00:12:27;;;;;;;;;;;20.30;37.10;;;;;;5062004;28;19935;-54
2022/03/07 00:14:52;;;;;;;;;;;20.30;37.10;;;;;;5074020;28;19908;-54
2022/03/07 00:17:18;;;;;;;;;;;20.30;37.10;;;;;;5069182;28;20351;-54
2022/03/07 00:19:43;;;;;;;;;;;20.30;37.20;;;;;;5070883;28;19916;-54
2022/03/07 00:22:09;;;;;;;;;;;20.20;37.10;;;;;;5067619;28;19999;-54
2022/03/07 00:24:34;;;;;;;;;;;20.20;37.20;;;;;;5073982;28;19962;-55
2022/03/07 00:27:00;;;;;;;;;;;20.20;37.20;;;;;;5073795;28;19916;-55
2022/03/07 00:29:27;;;;;;;;;;;20.10;37.30;;;;;;5073168;28;19913;-54
2022/03/07 00:31:53;;;;;;;;;;;20.10;37.30;;;;;;5074099;28;19998;-54
2022/03/07 00:34:18;;;;;;;;;;;20.10;37.40;;;;;;5073335;28;20024;-54
2022/03/07 00:36:44;;;;;;;;;;;20.00;37.40;;;;;;5071433;28;19917;-55
2022/03/07 00:39:09;;;;;;;;;;;20.00;37.50;;;;;;5053601;28;19921;-54
2022/03/07 00:41:34;;;;;;;;;;;19.90;37.60;;;;;;5065886;28;19916;-55
2022/03/07 00:44:00;;;;;;;;;;;19.90;37.60;;;;;;5069685;28;19913;-54
2022/03/07 00:46:25;;;;;;;;;;;19.80;37.70;;;;;;5072267;28;19921;-54
2022/03/07 00:48:51;;;;;;;;;;;19.80;37.80;;;;;;5072113;28;19912;-54
2022/03/07 00:51:16;;;;;;;;;;;19.70;37.90;;;;;;5073025;28;19908;-54
2022/03/07 00:53:42;;;;;;;;;;;19.70;37.90;;;;;;5071250;28;19957;-54
2022/03/07 00:56:10;;;;;;;;;;;19.70;37.80;;;;;;5071705;28;19912;-55
2022/03/07 00:58:35;;;;;;;;;;;19.70;37.90;;;;;;5059249;28;20003;-54
2022/03/07 01:01:00;;;;;;;;;;;19.70;38.00;;;;;;5073287;28;19995;-54
2022/03/07 01:03:26;;;;;;;;;;;19.70;37.90;;;;;;5072552;28;19974;-54
2022/03/07 01:05:51;;;;;;;;;;;19.60;37.90;;;;;;5067769;28;19928;-54
2022/03/07 01:08:17;;;;;;;;;;;19.60;37.90;;;;;;5065230;28;19919;-54
2022/03/07 01:10:42;;;;;;;;;;;19.60;38.00;;;;;;5059698;28;19966;-55
2022/03/07 01:13:08;;;;;;;;;;;19.60;38.70;;;;;;5068548;28;19934;-55
2022/03/07 01:15:33;;;;;;;;;;;19.60;37.90;;;;;;5073298;28;19935;-54
2022/03/07 01:17:59;;;;;;;;;;;19.50;37.80;;;;;;5070665;28;19913;-54
2022/03/07 01:20:25;;;;;;;;;;;19.50;37.90;;;;;;5067685;28;19924;-54
2022/03/07 01:22:51;;;;;;;;;;;19.50;37.90;;;;;;5072376;28;19912;-54
2022/03/07 01:25:16;;;;;;;;;;;19.50;37.90;;;;;;5072146;28;20295;-55
2022/03/07 01:27:42;;;;;;;;;;;19.50;38.00;;;;;;5070999;28;19915;-54
2022/03/07 01:30:07;;;;;;;;;;;19.50;38.00;;;;;;5072689;28;19913;-54
2022/03/07 01:32:33;;;;;;;;;;;19.50;37.90;;;;;;5072805;28;19909;-54
2022/03/07 01:34:58;;;;;;;;;;;19.50;37.90;;;;;;5072176;28;19908;-54
2022/03/07 01:37:24;;;;;;;;;;;19.40;38.00;;;;;;5073126;28;19967;-54
2022/03/07 01:39:49;;;;;;;;;;;19.50;37.90;;;;;;5056812;28;19925;-54
2022/03/07 01:42:15;;;;;;;;;;;19.40;37.90;;;;;;5071393;28;19920;-54
2022/03/07 01:44:40;;;;;;;;;;;19.40;38.00;;;;;;5070522;28;19908;-55
2022/03/07 01:47:06;;;;;;;;;;;19.50;37.90;;;;;;5073060;28;19953;-54
2022/03/07 01:49:31;;;;;;;;;;;19.40;37.80;;;;;;5072391;28;19909;-54
2022/03/07 01:51:57;;;;;;;;;;;19.40;37.90;;;;;;5072259;28;19920;-54
2022/03/07 01:54:22;;;;;;;;;;;19.40;37.90;;;;;;5072276;28;19916;-55
2022/03/07 01:56:49;;;;;;;;;;;19.30;37.90;;;;;;5066687;28;19913;-54
2022/03/07 01:59:15;;;;;;;;;;;19.30;37.80;;;;;;5071381;28;19916;-53
2022/03/07 02:01:41;;;;;;;;;;;19.30;38.00;;;;;;5073217;28;19916;-54
2022/03/07 02:04:06;;;;;;;;;;;19.30;37.90;;;;;;5056941;28;19912;-54
2022/03/07 02:06:32;;;;;;;;;;;19.30;37.80;;;;;;5064808;28;20300;-54
2022/03/07 02:08:57;;;;;;;;;;;19.30;38.00;;;;;;5072617;28;20392;-54
2022/03/07 02:11:23;;;;;;;;;;;19.30;38.10;;;;;;5072738;28;19915;-54
2022/03/07 02:13:49;;;;;;;;;;;19.20;37.90;;;;;;5072626;28;20287;-54
2022/03/07 02:16:15;;;;;;;;;;;19.20;37.90;;;;;;5072884;28;19920;-54
2022/03/07 02:18:40;;;;;;;;;;;19.30;37.90;;;;;;5068160;28;20620;-54
2022/03/07 02:21:10;;;;;;;;;;;19.40;37.90;;;;;;5053795;28;19931;-53
2022/03/07 02:23:36;;;;;;;;;;;19.50;37.80;;;;;;5052628;28;19952;-53
2022/03/07 02:26:10;;;;;;;;;;;19.80;37.80;;;;;;5052384;28;19944;-54
2022/03/07 02:28:35;;;;;;;;;;;20.00;37.40;;;;;;5071482;28;19912;-54
2022/03/07 02:31:01;;;;;;;;;;;20.30;37.10;;;;;;5072241;28;20077;-54
2022/03/07 02:33:26;;;;;;;;;;;20.60;36.70;;;;;;5072138;28;20299;-54
2022/03/07 02:35:52;;;;;;;;;;;20.90;36.30;;;;;;5068181;28;19920;-54
2022/03/07 02:38:17;;;;;;;;;;;21.30;36.00;;;;;;5055454;28;19920;-54
2022/03/07 02:40:44;;;;;;;;;;;21.60;35.40;;;;;;5055713;28;20210;-54
2022/03/07 02:43:09;;;;;;;;;;;21.90;35.70;;;;;;5055579;28;20489;-54
2022/03/07 02:45:34;;;;;;;;;;;22.10;34.90;;;;;;5072239;28;19948;-54
2022/03/07 02:48:00;;;;;;;;;;;22.20;34.70;;;;;;5075822;28;19913;-54
2022/03/07 02:50:25;;;;;;;;;;;22.20;34.80;;;;;;5075477;28;19909;-54
2022/03/07 02:52:51;;;;;;;;;;;22.10;34.60;;;;;;5071291;28;20339;-54
2022/03/07 02:55:16;;;;;;;;;;;22.10;34.70;;;;;;5074752;28;19909;-54
2022/03/07 02:57:42;;;;;;;;;;;22.00;34.90;;;;;;5075379;28;19912;-54
2022/03/07 03:00:09;;;;;;;;;;;21.90;35.00;;;;;;5075405;28;19909;-54
2022/03/07 03:02:35;;;;;;;;;;;21.90;35.00;;;;;;5075230;28;19923;-54
2022/03/07 03:05:00;;;;;;;;;;;21.90;35.00;;;;;;5073990;28;19921;-54
2022/03/07 03:07:25;;;;;;;;;;;21.80;34.90;;;;;;5074875;28;20006;-54
2022/03/07 03:09:51;;;;;;;;;;;21.80;34.90;;;;;;5062748;28;19913;-54
2022/03/07 03:12:16;;;;;;;;;;;21.70;34.80;;;;;;5055342;28;19917;-54
2022/03/07 03:14:42;;;;;;;;;;;21.70;34.80;;;;;;5068457;28;19908;-54
2022/03/07 03:17:07;;;;;;;;;;;21.60;34.80;;;;;;5073658;28;19958;-55
2022/03/07 03:19:33;;;;;;;;;;;21.60;34.80;;;;;;5073278;28;19916;-54
2022/03/07 03:21:58;;;;;;;;;;;21.50;34.80;;;;;;5075161;28;19913;-54
2022/03/07 03:24:24;;;;;;;;;;;21.40;34.80;;;;;;5074564;28;20507;-54
2022/03/07 03:26:49;;;;;;;;;;;21.40;34.90;;;;;;5068000;28;20323;-54
2022/03/07 03:29:15;;;;;;;;;;;21.30;35.10;;;;;;5063788;28;19916;-54
2022/03/07 03:31:40;;;;;;;;;;;21.20;35.00;;;;;;5075140;28;19987;-54
2022/03/07 03:34:06;;;;;;;;;;;21.20;35.10;;;;;;5074099;28;19908;-54
2022/03/07 03:36:32;;;;;;;;;;;21.20;35.20;;;;;;5074858;28;19908;-53
2022/03/07 03:38:57;;;;;;;;;;;21.10;35.30;;;;;;5074774;28;19912;-54
2022/03/07 03:41:23;;;;;;;;;;;21.10;35.40;;;;;;5075257;28;20296;-54
2022/03/07 03:43:48;;;;;;;;;;;21.00;35.40;;;;;;5069736;28;19930;-54
2022/03/07 03:46:13;;;;;;;;;;;21.00;35.40;;;;;;5074509;28;19942;-54
2022/03/07 03:48:39;;;;;;;;;;;20.90;35.40;;;;;;5074001;28;19958;-55
2022/03/07 03:51:04;;;;;;;;;;;20.90;35.40;;;;;;5075239;28;19964;-54
2022/03/07 03:53:30;;;;;;;;;;;20.90;35.60;;;;;;5074119;28;20574;-54
2022/03/07 03:55:55;;;;;;;;;;;20.90;35.60;;;;;;5074376;28;20424;-54
2022/03/07 03:58:21;;;;;;;;;;;20.80;35.80;;;;;;5073967;28;20472;-54
2022/03/07 04:00:46;;;;;;;;;;;20.80;36.30;;;;;;5069826;28;19916;-54
2022/03/07 04:03:12;;;;;;;;;;;20.80;36.40;;;;;;5061484;28;19920;-54
2022/03/07 04:05:37;;;;;;;;;;;20.70;36.40;;;;;;5054195;28;19920;-54
2022/03/07 04:08:03;;;;;;;;;;;20.70;36.60;;;;;;5062525;28;20360;-54
2022/03/07 04:10:28;;;;;;;;;;;20.70;36.60;;;;;;5074157;28;19917;-54
2022/03/07 04:12:54;;;;;;;;;;;20.70;36.70;;;;;;5073449;28;19928;-54
2022/03/07 04:15:19;;;;;;;;;;;20.70;36.60;;;;;;5073868;28;19913;-54
2022/03/07 04:17:45;;;;;;;;;;;20.70;36.60;;;;;;5074037;28;20356;-54
2022/03/07 04:20:10;;;;;;;;;;;20.70;36.70;;;;;;5064775;28;19913;-54
2022/03/07 04:22:36;;;;;;;;;;;20.70;36.70;;;;;;5054285;28;20261;-54
2022/03/07 04:25:02;;;;;;;;;;;20.70;36.60;;;;;;5053699;28;20357;-54
2022/03/07 04:27:28;;;;;;;;;;;20.70;37.20;;;;;;5053054;28;19909;-54
2022/03/07 04:29:54;;;;;;;;;;;20.70;36.30;;;;;;5061642;28;19999;-54
2022/03/07 04:32:21;;;;;;;;;;;20.80;36.10;;;;;;5074215;28;19912;-54
2022/03/07 04:34:46;;;;;;;;;;;20.80;35.70;;;;;;5069028;28;20428;-54
2022/03/07 04:37:12;;;;;;;;;;;20.80;35.50;;;;;;5060924;28;19942;-54
2022/03/07 04:39:37;;;;;;;;;;;20.80;35.50;;;;;;5072821;28;19908;-54
2022/03/07 04:42:03;;;;;;;;;;;20.90;35.50;;;;;;5073591;28;19908;-55
2022/03/07 04:44:28;;;;;;;;;;;20.90;35.40;;;;;;5073712;28;19987;-55
2022/03/07 04:46:54;;;;;;;;;;;20.90;35.50;;;;;;5073490;28;19920;-54
2022/03/07 04:49:19;;;;;;;;;;;20.80;35.50;;;;;;5072546;28;19919;-55
2022/03/07 04:51:45;;;;;;;;;;;20.80;35.50;;;;;;5073406;28;20379;-55
2022/03/07 04:54:11;;;;;;;;;;;20.80;35.60;;;;;;5056989;28;19920;-54
2022/03/07 04:56:37;;;;;;;;;;;20.80;35.70;;;;;;5053845;28;19912;-55
2022/03/07 04:59:03;;;;;;;;;;;20.70;35.70;;;;;;5052857;28;19916;-55
2022/03/07 05:01:28;;;;;;;;;;;20.70;35.80;;;;;;5053701;28;19928;-55
2022/03/07 05:03:54;;;;;;;;;;;20.60;35.80;;;;;;5052819;28;20304;-55
2022/03/07 05:06:19;;;;;;;;;;;20.60;36.00;;;;;;5059983;28;20296;-55
2022/03/07 05:08:45;;;;;;;;;;;20.60;36.30;;;;;;5072628;28;19966;-55
2022/03/07 05:11:10;;;;;;;;;;;20.60;36.50;;;;;;5057817;28;19966;-54
2022/03/07 05:13:35;;;;;;;;;;;20.50;36.60;;;;;;5053011;28;19908;-54
2022/03/07 05:16:01;;;;;;;;;;;20.50;36.70;;;;;;5056230;28;19924;-54
2022/03/07 05:18:26;;;;;;;;;;;20.40;36.80;;;;;;5071764;28;19916;-55
2022/03/07 05:20:52;;;;;;;;;;;20.40;36.80;;;;;;5071450;28;19912;-54
2022/03/07 05:23:17;;;;;;;;;;;20.40;36.90;;;;;;5072498;28;20003;-55
2022/03/07 05:25:43;;;;;;;;;;;20.40;36.90;;;;;;5071985;28;19920;-55
2022/03/07 05:28:08;;;;;;;;;;;20.40;36.90;;;;;;5057628;28;19916;-55
2022/03/07 05:30:34;;;;;;;;;;;20.40;36.90;;;;;;5069095;28;19917;-55
2022/03/07 05:32:59;;;;;;;;;;;20.40;36.90;;;;;;5072071;28;19913;-55
2022/03/07 05:35:25;;;;;;;;;;;20.50;36.90;;;;;;5052530;28;19960;-55
2022/03/07 05:37:50;;;;;;;;;;;20.50;36.80;;;;;;5067236;28;20368;-55
2022/03/07 05:40:16;;;;;;;;;;;20.60;36.70;;;;;;5072586;28;19909;-55
2022/03/07 05:42:41;;;;;;;;;;;20.60;36.60;;;;;;5066068;28;20016;-55
2022/03/07 05:45:07;;;;;;;;;;;20.60;36.30;;;;;;5052849;28;19936;-54
2022/03/07 05:47:33;;;;;;;;;;;20.60;35.80;;;;;;5052818;28;19909;-55
2022/03/07 05:49:58;;;;;;;;;;;20.70;35.80;;;;;;5065831;28;20291;-53
2022/03/07 05:52:24;;;;;;;;;;;20.70;35.70;;;;;;5060967;28;20466;-55
2022/03/07 05:54:49;;;;;;;;;;;20.70;35.60;;;;;;5072645;28;19948;-55
2022/03/07 05:57:15;;;;;;;;;;;20.70;35.50;;;;;;5072686;28;20291;-55
2022/03/07 05:59:40;;;;;;;;;;;20.70;35.50;;;;;;5068048;28;19920;-55
2022/03/07 06:02:05;;;;;;;;;;;20.70;35.50;;;;;;5071580;28;19908;-55
2022/03/07 06:04:31;;;;;;;;;;;20.60;35.60;;;;;;5072004;28;19915;-55
2022/03/07 06:06:56;;;;;;;;;;;20.60;35.60;;;;;;5056318;28;19948;-55
2022/03/07 06:09:22;;;;;;;;;;;20.60;35.70;;;;;;5061881;28;19913;-54
2022/03/07 06:11:47;;;;;;;;;;;20.50;35.70;;;;;;5075191;28;19908;-55
2022/03/07 06:14:13;;;;;;;;;;;20.50;35.70;;;;;;5076546;28;20427;-54
2022/03/07 06:16:38;;;;;;;;;;;20.50;35.70;;;;;;5065635;28;19920;-54
2022/03/07 06:19:03;;;;;;;;;;;20.50;35.80;;;;;;5055852;28;19916;-55
2022/03/07 06:21:29;;;;;;;;;;;20.50;36.10;;;;;;5060134;28;19948;-54
2022/03/07 06:23:54;;;;;;;;;;;20.50;36.20;;;;;;5055844;28;19943;-54
2022/03/07 06:26:20;;;;;;;;;;;20.50;36.40;;;;;;5068411;28;19913;-54
2022/03/07 06:28:45;;;;;;;;;;;20.40;36.30;;;;;;5075928;28;19908;-54
2022/03/07 06:31:11;;;;;;;;;;;20.40;36.60;;;;;;5075834;28;19909;-53
2022/03/07 06:33:36;;;;;;;;;;;20.40;36.70;;;;;;5074762;28;20360;-53
2022/03/07 06:36:04;;;;;;;;;;;20.40;36.70;;;;;;5075375;28;19971;-54
2022/03/07 06:38:29;;;;;;;;;;;20.30;36.70;;;;;;5068053;28;19920;-54
2022/03/07 06:40:55;;;;;;;;;;;20.30;36.70;;;;;;5075942;28;19913;-54
2022/03/07 06:43:20;;;;;;;;;;;20.30;36.70;;;;;;5074719;28;20348;-55
2022/03/07 06:45:46;;;;;;;;;;;20.40;36.70;;;;;;5074760;28;19923;-55
2022/03/07 06:48:11;;;;;;;;;;;20.40;36.60;;;;;;5074570;28;19920;-54
2022/03/07 06:50:37;;;;;;;;;;;20.40;36.70;;;;;;5075666;28;19909;-55
2022/03/07 06:53:02;;;;;;;;;;;20.40;36.60;;;;;;5071260;28;20047;-55
2022/03/07 06:55:28;;;;;;;;;;;20.40;36.60;;;;;;5066914;28;19909;-54
2022/03/07 06:57:53;;;;;;;;;;;20.40;36.40;;;;;;5071296;28;19982;-55
2022/03/07 07:00:19;;;;;;;;;;;20.40;36.00;;;;;;5074120;28;19908;-54
2022/03/07 07:02:45;;;;;;;;;;;20.50;36.00;;;;;;5075559;28;20019;-54
2022/03/07 07:05:11;;;;;;;;;;;20.50;35.70;;;;;;5074549;28;19924;-54
2022/03/07 07:07:37;;;;;;;;;;;20.50;35.60;;;;;;5074225;28;20537;-55
2022/03/07 07:10:06;;;;;;;;;;;20.50;35.60;;;;;;5073248;28;19909;-55
2022/03/07 07:12:32;;;;;;;;;;;20.50;35.70;;;;;;5071718;28;19940;-54
2022/03/07 07:14:57;;;;;;;;;;;20.50;35.70;;;;;;5072202;28;19919;-54
2022/03/07 07:17:22;;;;;;;;;;;20.50;35.70;;;;;;5060669;28;19912;-54
2022/03/07 07:19:48;;;;;;;;;;;20.50;35.70;;;;;;5074676;28;19909;-54
2022/03/07 07:22:14;;;;;;;;;;;20.50;35.70;;;;;;5072362;28;20002;-54
2022/03/07 07:24:40;;;;;;;;;;;20.50;35.80;;;;;;5074325;28;19919;-54
2022/03/07 07:27:05;;;;;;;;;;;20.50;35.70;;;;;;5068752;28;19909;-54
2022/03/07 07:29:30;;;;;;;;;;;20.50;35.70;;;;;;5054801;28;19915;-54
2022/03/07 07:31:56;;;;;;;;;;;20.50;35.60;;;;;;5058729;28;19991;-54
2022/03/07 07:34:21;;;;;;;;;;;20.50;35.80;;;;;;5059081;28;19916;-54
2022/03/07 07:36:47;;;;;;;;;;;20.50;36.00;;;;;;5075032;28;19909;-54
2022/03/07 07:39:13;;;;;;;;;;;20.50;36.10;;;;;;5074345;28;19908;-54
2022/03/07 07:41:38;;;;;;;;;;;20.40;36.40;;;;;;5074683;28;19909;-54
2022/03/07 07:44:04;;;;;;;;;;;20.40;36.50;;;;;;5057148;28;19966;-54
2022/03/07 07:46:29;;;;;;;;;;;20.40;36.70;;;;;;5054429;28;20356;-54
2022/03/07 07:48:55;;;;;;;;;;;20.40;36.70;;;;;;5067571;28;19912;-54
2022/03/07 07:51:20;;;;;;;;;;;20.40;36.70;;;;;;5073639;28;20065;-54
2022/03/07 07:53:46;;;;;;;;;;;20.40;36.70;;;;;;5072043;28;19970;-54
2022/03/07 07:56:11;;;;;;;;;;;20.40;36.70;;;;;;5065845;28;20301;-54
2022/03/07 07:58:37;;;;;;;;;;;20.40;36.70;;;;;;5067927;28;19978;-54
2022/03/07 08:01:02;;;;;;;;;;;20.40;37.30;;;;;;5070519;28;19913;-55
2022/03/07 08:03:28;;;;;;;;;;;20.40;36.70;;;;;;5072974;28;19908;-55
2022/03/07 08:05:53;;;;;;;;;;;20.40;36.70;;;;;;5070902;28;19932;-55
2022/03/07 08:08:18;;;;;;;;;;;20.40;36.80;;;;;;5072357;28;19977;-55
2022/03/07 08:10:44;;;;;;;;;;;20.40;36.70;;;;;;5073811;28;19916;-53
2022/03/07 08:13:10;;;;;;;;;;;20.40;36.90;;;;;;5055898;28;19913;-55
2022/03/07 08:15:35;;;;;;;;;;;20.40;36.60;;;;;;5070582;28;19919;-55
2022/03/07 08:18:01;;;;;;;;;;;20.40;36.60;;;;;;5072948;28;19917;-55
2022/03/07 08:20:29;;;;;;;;;;;20.40;36.30;;;;;;5070827;28;20410;-55
2022/03/07 08:22:54;;;;;;;;;;;20.40;36.40;;;;;;5074111;28;20007;-55
2022/03/07 08:25:20;;;;;;;;;;;20.50;36.90;;;;;;5065139;28;20376;-55
2022/03/07 08:27:46;;;;;;;;;;;20.70;37.00;;;;;;5060015;28;19913;-55
2022/03/07 08:30:13;;;;;;;;;;;21.10;36.60;;;;;;5068869;28;21286;-55
2022/03/07 08:32:40;;;;;;;;;;;21.60;35.90;;;;;;5072876;28;19975;-55
2022/03/07 08:35:06;;;;;;;;;;;22.10;35.20;;;;;;5074067;28;19912;-56
2022/03/07 08:37:32;;;;;;;;;;;22.50;34.70;;;;;;5072834;28;19923;-55
2022/03/07 08:39:58;;;;;;;;;;;22.80;34.10;;;;;;5070316;28;19957;-55
2022/03/07 08:42:23;;;;;;;;;;;23.10;33.90;;;;;;5064466;28;20306;-54
2022/03/07 08:44:51;;;;;;;;;;;23.30;33.60;;;;;;5071589;28;19982;-53
2022/03/07 08:47:16;;;;;;;;;;;23.40;33.30;;;;;;5068140;28;19909;-53
2022/03/07 08:49:42;;;;;;;;;;;23.60;33.20;;;;;;5072662;28;19957;-54
2022/03/07 08:52:08;;;;;;;;;;;23.70;32.90;;;;;;5073393;28;19908;-54
2022/03/07 08:54:33;;;;;;;;;;;23.80;32.90;;;;;;5070611;28;19908;-55
2022/03/07 08:56:59;;;;;;;;;;;23.80;32.80;;;;;;5073088;28;20497;-54
2022/03/07 08:59:27;;;;;;;;;;;23.90;32.80;;;;;;5066300;28;19924;-54
2022/03/07 09:01:53;;;;;;;;;;;23.90;32.80;;;;;;5073381;28;19912;-54
2022/03/07 09:04:20;;;;;;;;;;;23.90;32.90;;;;;;5071970;28;19915;-54
2022/03/07 09:06:45;;;;;;;;;;;23.90;32.90;;;;;;5072409;28;19925;-54
2022/03/07 09:09:11;;;;;;;;;;;23.90;32.90;;;;;;5067394;28;19913;-54
2022/03/07 09:11:36;;;;;;;;;;;24.00;33.10;;;;;;5072894;28;20011;-55
2022/03/07 09:14:02;;;;;;;;;;;23.90;33.00;;;;;;5072556;28;19920;-56
2022/03/07 09:16:27;;;;;;;;;;;23.90;33.10;;;;;;5072595;28;20003;-55
2022/03/07 09:18:52;;;;;;;;;;;23.80;33.10;;;;;;5073055;28;19909;-55
2022/03/07 09:21:18;;;;;;;;;;;23.80;33.10;;;;;;5071560;28;19913;-55
2022/03/07 09:23:46;;;;;;;;;;;23.80;33.20;;;;;;5057290;28;19913;-55
2022/03/07 09:26:11;;;;;;;;;;;23.80;33.40;;;;;;5067955;28;19912;-56
2022/03/07 09:28:37;;;;;;;;;;;23.80;33.40;;;;;;5072268;28;19916;-54
2022/03/07 09:31:02;;;;;;;;;;;23.80;33.40;;;;;;5073199;28;19912;-56
2022/03/07 09:33:28;;;;;;;;;;;23.80;33.50;;;;;;5068621;28;19912;-55
2022/03/07 09:35:53;;;;;;;;;;;23.80;33.40;;;;;;5062762;28;19916;-56
2022/03/07 09:38:19;;;;;;;;;;;23.80;33.50;;;;;;5065357;28;20220;-55
2022/03/07 09:40:45;;;;;;;;;;;23.80;33.60;;;;;;5072653;28;19921;-55
2022/03/07 09:43:10;;;;;;;;;;;23.80;33.70;;;;;;5073157;28;19917;-55
2022/03/07 09:45:36;;;;;;;;;;;23.80;33.80;;;;;;5072271;28;19912;-55
2022/03/07 09:48:01;;;;;;;;;;;23.80;33.70;;;;;;5073167;28;19991;-56
2022/03/07 09:50:27;;;;;;;;;;;23.80;33.70;;;;;;5067173;28;19916;-55
2022/03/07 09:52:54;;;;;;;;;;;23.80;33.80;;;;;;5074062;28;19935;-55
2022/03/07 09:55:20;;;;;;;;;;;23.90;33.90;;;;;;5070591;28;19920;-55
2022/03/07 09:57:45;;;;;;;;;;;24.00;33.80;;;;;;5071011;28;19909;-55
2022/03/07 10:00:11;;;;;;;;;;;24.00;33.70;;;;;;5071801;28;19912;-56
2022/03/07 10:02:36;;;;;;;;;;;24.00;33.60;;;;;;5069999;28;19935;-54
2022/03/07 10:05:02;;;;;;;;;;;24.00;33.60;;;;;;5075294;28;19923;-56
2022/03/07 10:07:28;;;;;;;;;;;24.00;33.70;;;;;;5067193;28;19935;-54
2022/03/07 10:10:06;;;;;;;;;;;24.10;33.80;;;;;;5070160;28;19912;-55
2022/03/07 10:12:31;;;;;;;;;;;24.10;33.70;;;;;;5072169;28;19962;-55
2022/03/07 10:14:57;;;;;;;;;;;24.10;33.80;;;;;;5065929;28;19959;-55
2022/03/07 10:17:26;;;;;;;;;;;24.10;33.80;;;;;;5069481;28;19933;-55
2022/03/07 10:19:52;;;;;;;;;;;24.10;33.90;;;;;;5071118;28;19913;-54
2022/03/07 10:22:19;;;;;;;;;;;24.10;33.90;;;;;;5063807;28;19920;-55
2022/03/07 10:24:45;;;;;;;;;;;24.10;33.80;;;;;;5068035;28;19928;-55
2022/03/07 10:27:10;;;;;;;;;;;24.10;33.80;;;;;;5069534;28;19916;-55
2022/03/07 10:29:46;;;;;;;;;;;24.10;33.80;;;;;;5083778;28;19920;-54
2022/03/07 10:32:17;;;;;;;;;;;24.10;33.80;;;;;;5071302;28;19908;-55
2022/03/07 10:34:43;;;;;;;;;;;24.00;33.60;;;;;;5076938;28;19908;-56
2022/03/07 10:37:08;;;;;;;;;;;24.10;33.70;;;;;;5077255;28;19987;-55
2022/03/07 10:39:34;;;;;;;;;;;24.10;33.60;;;;;;5074795;28;19939;-55
2022/03/07 10:41:59;;;;;;;;;;;24.10;33.50;;;;;;5069859;28;20291;-55
2022/03/07 10:44:26;;;;;;;;;;;24.10;33.60;;;;;;5073420;28;19969;-56
2022/03/07 10:46:51;;;;;;;;;;;24.10;33.60;;;;;;5061662;28;19939;-54
2022/03/07 10:49:17;;;;;;;;;;;24.10;33.70;;;;;;5074126;28;19998;-55
2022/03/07 10:51:52;;;;;;;;;;;24.10;33.70;;;;;;5076650;28;20356;-57
2022/03/07 10:54:18;;;;;;;;;;;24.10;33.70;;;;;;5074875;28;19947;-54
2022/03/07 10:56:50;;;;;;;;;;;24.10;33.80;;;;;;5070846;28;19912;-54
2022/03/07 10:59:26;;;;;;;;;;;24.10;33.80;;;;;;5066952;28;20003;-55
2022/03/07 11:01:57;;;;;;;;;;;24.10;33.80;;;;;;5066225;28;19993;-54
2022/03/07 11:04:22;;;;;;;;;;;24.10;33.80;;;;;;5067686;28;20379;-55
2022/03/07 11:06:48;;;;;;;;;;;24.10;33.80;;;;;;5073997;28;19924;-56
2022/03/07 11:09:13;;;;;;;;;;;24.20;33.90;;;;;;5062584;28;19971;-55
2022/03/07 11:11:39;;;;;;;;;;;24.10;33.90;;;;;;5066645;28;20585;-55
2022/03/07 11:14:04;;;;;;;;;;;24.10;33.90;;;;;;5074808;28;19920;-54
2022/03/07 11:16:30;;;;;;;;;;;24.10;34.00;;;;;;5075267;28;20000;-55
2022/03/07 11:18:55;;;;;;;;;;;24.10;34.00;;;;;;5074057;28;19928;-55
2022/03/07 11:21:21;;;;;;;;;;;24.10;34.00;;;;;;5075103;28;20350;-56
2022/03/07 11:23:47;;;;;;;;;;;24.10;34.00;;;;;;5073996;28;20355;-54
2022/03/07 11:26:13;;;;;;;;;;;24.20;34.10;;;;;;5070431;28;19948;-56
2022/03/07 11:28:38;;;;;;;;;;;24.20;34.10;;;;;;5064947;28;20280;-55
2022/03/07 11:31:04;;;;;;;;;;;24.10;34.10;;;;;;5073541;28;20372;-54
2022/03/07 11:33:37;;;;;;;;;;;24.20;34.80;;;;;;5067629;28;19931;-55
2022/03/07 11:36:03;;;;;;;;;;;24.10;34.00;;;;;;5067043;28;19958;-55
2022/03/07 11:38:31;;;;;;;;;;;24.10;34.00;;;;;;5063203;28;19912;-55
2022/03/07 11:41:00;;;;;;;;;;;24.10;34.20;;;;;;5070705;28;20010;-55
2022/03/07 11:43:27;;;;;;;;;;;24.20;34.30;;;;;;5064087;28;19969;-55
2022/03/07 11:45:53;;;;;;;;;;;24.20;34.30;;;;;;5073279;28;19920;-55
2022/03/07 11:48:18;;;;;;;;;;;24.20;34.30;;;;;;5074233;28;19913;-56
2022/03/07 11:50:45;;;;;;;;;;;24.20;34.30;;;;;;5073416;28;20360;-54
2022/03/07 11:53:10;;;;;;;;;;;24.20;34.40;;;;;;5073342;28;19920;-56
2022/03/07 11:55:42;;;;;;;;;;;24.20;34.50;;;;;;5065944;28;20448;-55
2022/03/07 11:58:08;;;;;;;;;;;24.30;34.50;;;;;;5059020;28;19913;-55
2022/03/07 12:00:36;;;;;;;;;;;24.30;34.50;;;;;;5069234;28;19927;-54
2022/03/07 12:03:22;;;;;;;;;;;24.30;34.50;;;;;;5069311;28;19947;-54
2022/03/07 12:05:48;;;;;;;;;;;24.20;34.50;;;;;;5066266;28;19935;-56
2022/03/07 12:08:14;;;;;;;;;;;24.20;34.50;;;;;;5059348;28;19908;-55
2022/03/07 12:10:57;;;;;;;;;;;24.20;34.60;;;;;;5067957;28;19912;-55
2022/03/07 12:13:23;;;;;;;;;;;24.20;34.60;;;;;;5066908;28;19923;-54
2022/03/07 12:15:49;;;;;;;;;;;24.20;34.60;;;;;;5066993;28;19912;-54
2022/03/07 12:18:15;;;;;;;;;;;24.30;34.70;;;;;;5068207;28;19912;-54
2022/03/07 12:20:51;;;;;;;;;;;24.30;34.70;;;;;;5072337;28;19916;-54
2022/03/07 12:23:17;;;;;;;;;;;24.30;34.70;;;;;;5064284;28;19941;-54
2022/03/07 12:25:43;;;;;;;;;;;24.30;34.60;;;;;;5067303;28;19917;-54
2022/03/07 12:28:08;;;;;;;;;;;24.30;34.60;;;;;;5065812;28;19912;-54
2022/03/07 12:30:34;;;;;;;;;;;24.30;34.50;;;;;;5065544;28;19924;-55
2022/03/07 12:33:04;;;;;;;;;;;24.30;34.60;;;;;;5065257;28;19935;-55
2022/03/07 12:35:29;;;;;;;;;;;24.30;34.50;;;;;;5068463;28;20122;-54
2022/03/07 12:37:55;;;;;;;;;;;24.40;34.70;;;;;;5071896;28;20467;-54
2022/03/07 12:40:21;;;;;;;;;;;24.40;34.60;;;;;;5060253;28;19921;-54
2022/03/07 12:42:46;;;;;;;;;;;24.40;34.60;;;;;;5063899;28;20003;-54
2022/03/07 12:45:16;;;;;;;;;;;24.50;34.60;;;;;;5063690;28;19920;-55
2022/03/07 12:47:41;;;;;;;;;;;24.50;34.60;;;;;;5066292;28;19923;-54
2022/03/07 12:50:07;;;;;;;;;;;24.50;34.50;;;;;;5067233;28;19913;-56
2022/03/07 12:52:34;;;;;;;;;;;24.50;34.60;;;;;;5069380;28;19927;-56
2022/03/07 12:55:00;;;;;;;;;;;24.50;34.70;;;;;;5062270;28;20371;-53
2022/03/07 12:57:26;;;;;;;;;;;24.50;34.70;;;;;;5071827;28;19916;-56
2022/03/07 12:59:55;;;;;;;;;;;24.50;34.60;;;;;;5072321;28;19912;-55
2022/03/07 13:02:21;;;;;;;;;;;24.50;34.70;;;;;;5066753;28;20416;-55
2022/03/07 13:04:52;;;;;;;;;;;24.50;34.70;;;;;;5071446;28;19913;-54
2022/03/07 13:07:18;;;;;;;;;;;24.50;34.80;;;;;;5072780;28;19916;-55
2022/03/07 13:09:43;;;;;;;;;;;24.50;34.80;;;;;;5071601;28;19912;-55
2022/03/07 13:12:10;;;;;;;;;;;24.50;34.80;;;;;;5072803;28;20000;-54
2022/03/07 13:14:36;;;;;;;;;;;24.50;34.80;;;;;;5072504;28;19924;-54
2022/03/07 13:17:06;;;;;;;;;;;24.50;34.80;;;;;;5071459;28;20430;-55
2022/03/07 13:19:31;;;;;;;;;;;24.50;34.80;;;;;;5071467;28;19995;-56
2022/03/07 13:21:57;;;;;;;;;;;24.60;34.80;;;;;;5071753;28;19920;-56
2022/03/07 13:24:26;;;;;;;;;;;24.70;34.70;;;;;;5065700;28;20344;-55
2022/03/07 13:26:55;;;;;;;;;;;24.70;34.60;;;;;;5064338;28;20423;-53
2022/03/07 13:29:22;;;;;;;;;;;24.80;34.60;;;;;;5073392;28;19918;-54
2022/03/07 13:31:52;;;;;;;;;;;24.80;35.20;;;;;;5072004;28;19909;-54
2022/03/07 13:34:19;;;;;;;;;;;24.90;34.70;;;;;;5072538;28;19908;-55
2022/03/07 13:37:05;;;;;;;;;;;24.90;34.50;;;;;;5072380;28;20502;-55
2022/03/07 13:39:30;;;;;;;;;;;25.00;34.40;;;;;;5069241;28;19917;-54
2022/03/07 13:42:00;;;;;;;;;;;25.10;34.30;;;;;;5069860;28;19909;-54
2022/03/07 13:44:26;;;;;;;;;;;25.10;34.20;;;;;;5067517;28;20344;-54
2022/03/07 13:46:58;;;;;;;;;;;25.20;34.10;;;;;;5071732;28;19912;-54
2022/03/07 13:49:28;;;;;;;;;;;25.30;34.20;;;;;;5071583;28;19909;-54
2022/03/07 13:51:57;;;;;;;;;;;25.30;34.10;;;;;;5069082;28;19919;-55
2022/03/07 13:54:23;;;;;;;;;;;25.30;34.10;;;;;;5069620;28;19916;-54
2022/03/07 13:56:49;;;;;;;;;;;25.30;34.20;;;;;;5056938;28;19908;-54
2022/03/07 13:59:14;;;;;;;;;;;25.30;34.20;;;;;;5071326;28;20637;-56
2022/03/07 14:01:40;;;;;;;;;;;25.20;34.20;;;;;;5071203;28;19943;-55
2022/03/07 14:04:09;;;;;;;;;;;25.20;34.40;;;;;;5071092;28;19912;-54
2022/03/07 14:06:34;;;;;;;;;;;25.20;34.40;;;;;;5061035;28;19994;-55
2022/03/07 14:09:00;;;;;;;;;;;25.20;34.40;;;;;;5069427;28;19916;-56